Terminal Aerodrome Forecast
Issued by NWS

Home | Current Version | Previous Version | Text Only | Print | Product List | Glossary On
Versions: 1 2 3 4 5 6 7 8 9 10 11 12
000
FTUS42 TJSJ 231700 RRA
TAFKPK
TAF
TKPK 231742Z 2318/2418 17006KT P6SM FEW022
     FM232200 09008KT P6SM FEW022=

USA.gov is the U.S. government's official web portal to all federal, state and local government web resources and services.